Time;durP1;ratioP1;P1;durP2;ratioP2;P2;SDS_P1;SDS_P2;PMS_P1;PMS_P2;Temp;Humidity;BMP_temperature;BMP_pressure;BME280_temperature;BME280_humidity;BME280_pressure;Samples;Min_cycle;Max_cycle;Signal;HPM_P1;HPM_P2
2022/10/11 00:01:11;;;;;;;7.53;2.70;;;;;;;11.92;79.77;101454.09;7393486;19;20014;-69
2022/10/11 00:03:40;;;;;;;3.78;2.53;;;;;;;11.86;79.27;101460.34;7395519;19;20091;-69
2022/10/11 00:06:09;;;;;;;9.45;2.90;;;;;;;11.80;79.21;101463.06;7395106;19;20074;-69
2022/10/11 00:08:40;;;;;;;5.82;2.83;;;;;;;11.78;79.21;101462.22;7393719;19;20014;-69
2022/10/11 00:11:09;;;;;;;8.55;3.38;;;;;;;11.75;79.32;101465.75;7393871;19;20090;-68
2022/10/11 00:13:38;;;;;;;11.27;3.28;;;;;;;11.71;79.21;101479.84;7395157;19;20090;-68
2022/10/11 00:16:12;;;;;;;5.55;2.90;;;;;;;11.67;79.28;101478.16;7395234;19;20099;-68
2022/10/11 00:18:41;;;;;;;8.02;2.90;;;;;;;11.60;78.98;101489.63;7392989;19;20092;-68
2022/10/11 00:21:12;;;;;;;6.38;2.40;;;;;;;11.52;78.33;101493.22;7395086;19;20066;-69
2022/10/11 00:23:44;;;;;;;10.50;2.88;;;;;;;11.47;77.97;101507.34;7395378;19;20073;-69
2022/10/11 00:26:13;;;;;;;4.45;1.92;;;;;;;11.41;77.37;101503.03;7395232;19;20023;-69
2022/10/11 00:28:42;;;;;;;10.38;2.50;;;;;;;11.36;77.12;101507.47;7392774;19;20018;-69
2022/10/11 00:31:12;;;;;;;9.52;2.38;;;;;;;11.32;77.01;101513.66;7392615;19;20545;-69
2022/10/11 00:33:41;;;;;;;4.95;2.38;;;;;;;11.27;76.94;101516.31;7395343;19;20082;-70
2022/10/11 00:36:13;;;;;;;8.02;2.03;;;;;;;11.24;76.77;101524.25;7401715;19;20410;-69
2022/10/11 00:38:44;;;;;;;6.68;1.90;;;;;;;11.18;76.24;101533.06;7399581;19;20045;-69
2022/10/11 00:41:13;;;;;;;6.32;1.85;;;;;;;11.10;76.06;101532.31;7402494;19;20023;-69
2022/10/11 00:43:42;;;;;;;5.95;1.92;;;;;;;11.05;76.01;101537.59;7401890;19;20082;-69
2022/10/11 00:46:29;;;;;;;7.18;2.22;;;;;;;10.98;73.94;101540.31;7401489;19;20544;-69
2022/10/11 00:49:03;;;;;;;5.70;1.35;;;;;;;10.92;75.14;101536.88;7402199;19;20019;-69
2022/10/11 00:51:39;;;;;;;5.65;2.08;;;;;;;10.86;74.19;101544.81;7399425;19;20430;-69
2022/10/11 00:54:15;;;;;;;6.85;1.73;;;;;;;10.81;74.40;101548.38;7400981;19;20022;-71
2022/10/11 00:56:48;;;;;;;9.52;3.90;;;;;;;10.76;74.00;101551.03;7402833;19;20006;-69
2022/10/11 00:59:20;;;;;;;8.98;3.05;;;;;;;10.72;74.03;101554.56;7399766;19;20014;-72
2022/10/11 01:01:49;;;;;;;6.05;2.20;;;;;;;10.64;73.70;101554.66;7398541;19;20416;-69
2022/10/11 01:04:17;;;;;;;10.27;2.17;;;;;;;10.54;73.49;101550.34;7401393;19;20022;-69
2022/10/11 01:06:47;;;;;;;5.75;2.22;;;;;;;10.51;73.60;101558.25;7400483;19;20544;-69
2022/10/11 01:09:20;;;;;;;7.57;1.60;;;;;;;10.45;73.38;101564.44;7401044;19;20018;-69
2022/10/11 01:11:51;;;;;;;7.28;2.20;;;;;;;10.39;73.52;101567.09;7400924;19;20434;-69
2022/10/11 01:14:55;;;;;;;8.48;2.38;;;;;;;10.33;73.46;101577.59;7402286;19;20022;-68
2022/10/11 01:17:34;;;;;;;7.07;1.83;;;;;;;10.26;73.75;101574.13;7398984;19;20091;-67
2022/10/11 01:20:29;;;;;;;7.80;1.80;;;;;;;10.21;74.07;101570.69;7398192;19;20081;-67
2022/10/11 01:23:09;;;;;;;;;;;;;;;10.13;74.67;101581.22;7401194;19;20010;-68
2022/10/11 01:25:57;;;;;;;7.13;2.30;;;;;;;10.05;74.68;101588.28;7400281;19;20425;-67
2022/10/11 01:28:43;;;;;;;5.07;2.33;;;;;;;9.96;74.92;101583.97;7398007;19;20094;-67
2022/10/11 01:31:21;;;;;;;10.38;2.60;;;;;;;9.89;74.99;101590.97;7398791;19;20146;-67
2022/10/11 01:33:54;;;;;;;8.30;1.80;;;;;;;9.82;74.81;101596.25;7400833;19;20220;-67
2022/10/11 01:36:30;;;;;;;10.25;1.60;;;;;;;9.74;75.41;101597.19;7400370;19;20079;-67
2022/10/11 01:39:04;;;;;;;11.57;2.08;;;;;;;9.68;75.39;101593.69;7400556;19;20101;-67
2022/10/11 01:41:39;;;;;;;12.10;2.20;;;;;;;9.64;75.68;101607.69;7399642;19;20021;-67
2022/10/11 01:44:10;;;;;;;8.75;1.88;;;;;;;9.59;75.63;101605.97;7400459;19;20071;-68
2022/10/11 01:46:42;;;;;;;9.48;1.98;;;;;;;9.52;76.07;101609.47;7398721;19;20432;-67
2022/10/11 01:49:11;;;;;;;8.48;1.75;;;;;;;9.50;76.29;101607.75;7397902;19;20018;-67
2022/10/11 01:51:42;;;;;;;7.65;1.98;;;;;;;9.44;76.36;101613.91;7397552;19;20082;-67
2022/10/11 01:54:22;;;;;;;11.50;2.10;;;;;;;9.42;76.47;101613.03;7399926;19;20070;-67
2022/10/11 01:57:06;;;;;;;12.82;1.67;;;;;;;9.39;77.22;101619.13;7398797;19;20548;-68
2022/10/11 01:59:49;;;;;;;9.32;1.85;;;;;;;9.36;77.08;101624.38;7399209;19;20480;-67
2022/10/11 02:02:40;;;;;;;8.02;2.10;;;;;;;9.33;77.26;101618.28;7396609;19;20082;-68
2022/10/11 02:05:14;;;;;;;7.45;1.83;;;;;;;9.29;77.09;101622.66;7399795;19;20082;-67
2022/10/11 02:07:47;;;;;;;10.60;2.17;;;;;;;9.25;77.39;101620.91;7397721;19;20074;-67
2022/10/11 02:10:22;;;;;;;12.88;1.70;;;;;;;9.21;77.50;101620.06;7396533;19;20078;-69
2022/10/11 02:12:57;;;;;;;12.48;2.30;;;;;;;9.19;77.60;101621.81;7399520;19;20074;-68
2022/10/11 02:15:28;;;;;;;9.05;1.58;;;;;;;9.14;78.31;101628.78;7399409;19;20434;-68
2022/10/11 02:18:04;;;;;;;8.98;2.30;;;;;;;9.09;78.36;101631.41;7396837;19;20103;-69
2022/10/11 02:20:35;;;;;;;8.50;1.55;;;;;;;9.06;78.71;101630.53;7399674;19;20081;-68
2022/10/11 02:23:09;;;;;;;8.35;1.70;;;;;;;9.01;79.01;101629.66;7396930;19;20083;-67
2022/10/11 02:25:38;;;;;;;9.00;2.10;;;;;;;8.99;79.27;101634.06;7396199;19;20488;-67
2022/10/11 02:28:13;;;;;;;9.07;3.10;;;;;;;8.95;79.79;101639.28;7396484;19;20070;-67
2022/10/11 02:30:43;;;;;;;11.30;3.00;;;;;;;8.93;79.91;101630.56;7397082;19;20544;-67
2022/10/11 02:33:18;;;;;;;14.35;1.90;;;;;;;8.93;80.70;101640.16;7397805;19;20525;-66
2022/10/11 02:35:53;;;;;;;10.80;2.25;;;;;;;8.92;80.77;101639.28;7398429;19;20077;-67
2022/10/11 02:38:26;;;;;;;14.65;2.38;;;;;;;8.90;80.88;101642.78;7395934;19;20081;-68
2022/10/11 02:41:00;;;;;;;14.55;2.13;;;;;;;8.89;81.06;101639.28;7398469;19;20420;-67
2022/10/11 02:43:35;;;;;;;11.30;2.30;;;;;;;8.86;81.38;101634.06;7395805;19;20018;-67
2022/10/11 02:46:05;;;;;;;9.27;1.88;;;;;;;8.86;80.83;101638.41;7398229;19;20019;-68
2022/10/11 02:48:38;;;;;;;11.05;2.47;;;;;;;8.84;81.56;101640.16;7396314;19;20021;-68
2022/10/11 02:51:07;;;;;;;11.00;2.17;;;;;;;8.81;81.58;101643.66;7397067;19;20010;-68
2022/10/11 02:53:35;;;;;;;10.00;2.28;;;;;;;8.78;82.18;101641.03;7397592;19;20082;-68
2022/10/11 02:56:04;;;;;;;14.43;3.20;;;;;;;8.76;82.01;101645.41;7395786;19;20074;-68
2022/10/11 02:58:32;;;;;;;12.30;2.42;;;;;;;8.72;82.25;101647.13;7392596;19;20035;-67
2022/10/11 03:01:01;;;;;;;9.30;1.98;;;;;;;8.71;82.17;101655.00;7396338;19;20074;-68
2022/10/11 03:03:29;;;;;;;8.13;2.00;;;;;;;8.68;82.12;101660.22;7397212;19;20074;-68
2022/10/11 03:06:04;;;;;;;10.77;1.98;;;;;;;8.64;82.64;101660.22;7396765;19;20082;-68
2022/10/11 03:08:33;;;;;;;10.70;2.88;;;;;;;8.59;82.37;101656.72;7394719;19;20505;-68
2022/10/11 03:11:01;;;;;;;10.50;1.98;;;;;;;8.56;82.79;101672.41;7395855;19;20081;-67
2022/10/11 03:13:30;;;;;;;13.30;2.55;;;;;;;8.52;83.38;101673.28;7395261;19;20090;-67
2022/10/11 03:15:59;;;;;;;11.10;2.60;;;;;;;8.50;83.13;101676.75;7394834;19;20428;-67
2022/10/11 03:18:27;;;;;;;12.15;2.60;;;;;;;8.47;83.50;101675.88;7395184;19;20433;-67
2022/10/11 03:20:55;;;;;;;14.55;3.40;;;;;;;8.44;83.12;101680.19;7396685;19;20039;-68
2022/10/11 03:23:27;;;;;;;6.10;2.10;;;;;;;8.40;83.33;101684.53;7396288;19;20584;-68
2022/10/11 03:25:55;;;;;;;10.82;2.25;;;;;;;8.36;83.29;101688.00;7395938;19;20074;-68
2022/10/11 03:28:24;;;;;;;14.18;2.35;;;;;;;8.31;83.60;101688.03;7394964;19;20078;-68
2022/10/11 03:30:53;;;;;;;10.38;3.80;;;;;;;8.26;83.69;101694.94;7395602;19;20086;-68
2022/10/11 03:33:22;;;;;;;10.35;2.13;;;;;;;8.20;83.80;101694.97;7394112;19;20019;-71
2022/10/11 03:35:51;;;;;;;13.05;2.08;;;;;;;8.16;84.27;101706.25;7395882;19;20086;-69
2022/10/11 03:38:21;;;;;;;16.67;2.97;;;;;;;8.09;84.70;101701.88;7394308;19;20014;-68
2022/10/11 03:40:52;;;;;;;8.80;1.98;;;;;;;8.03;84.81;101707.09;7393776;19;20177;-68
2022/10/11 03:43:21;;;;;;;12.10;2.90;;;;;;;7.96;84.82;101708.78;7394326;19;20098;-68
2022/10/11 03:45:49;;;;;;;18.40;2.92;;;;;;;7.91;84.74;101715.72;7395769;19;20015;-67
2022/10/11 03:48:18;;;;;;;8.07;2.28;;;;;;;7.85;85.61;101719.19;7393564;19;20031;-68
2022/10/11 03:50:46;;;;;;;10.70;2.38;;;;;;;7.79;85.77;101720.03;7394710;19;20350;-68
2022/10/11 03:53:15;;;;;;;11.00;2.42;;;;;;;7.74;85.66;101719.13;7393871;19;20022;-68
2022/10/11 03:55:44;;;;;;;12.05;2.95;;;;;;;7.71;85.75;101715.63;7395461;19;20014;-68
2022/10/11 03:58:15;;;;;;;10.82;3.00;;;;;;;7.68;85.68;101720.84;7393224;19;20018;-68
2022/10/11 04:00:43;;;;;;;10.55;2.53;;;;;;;7.63;85.93;101724.31;7393415;19;20086;-68
2022/10/11 04:03:12;;;;;;;11.48;3.03;;;;;;;7.61;86.62;101730.38;7394923;19;20501;-68
2022/10/11 04:05:40;;;;;;;12.05;2.90;;;;;;;7.58;86.37;101727.75;7395174;19;20091;-67
2022/10/11 04:08:09;;;;;;;12.82;3.10;;;;;;;7.55;86.40;101739.03;7394063;19;20036;-68
2022/10/11 04:10:37;;;;;;;11.05;3.67;;;;;;;7.51;86.54;101739.88;7407938;19;20430;-68
2022/10/11 04:13:06;;;;;;;13.25;2.75;;;;;;;7.46;86.79;101744.22;7408762;19;20086;-68
2022/10/11 04:15:38;;;;;;;11.73;3.92;;;;;;;7.42;86.70;101742.41;7406874;19;20366;-67
2022/10/11 04:18:07;;;;;;;13.82;3.25;;;;;;;7.39;87.21;101751.09;7408424;19;20062;-69
2022/10/11 04:20:36;;;;;;;16.02;4.35;;;;;;;7.34;86.78;101756.31;7408317;19;20018;-69
2022/10/11 04:23:04;;;;;;;11.63;3.08;;;;;;;7.31;87.34;101744.97;7408431;19;20082;-68
2022/10/11 04:25:33;;;;;;;15.30;3.58;;;;;;;7.28;87.14;101757.97;7408928;19;20031;-69
2022/10/11 04:28:01;;;;;;;8.27;3.33;;;;;;;7.23;87.11;101755.34;7407335;19;20026;-70
2022/10/11 04:30:30;;;;;;;10.45;3.60;;;;;;;7.19;87.40;101748.34;7408753;19;20090;-68
2022/10/11 04:33:01;;;;;;;12.13;2.95;;;;;;;7.16;87.71;101756.16;7408266;19;20423;-69
2022/10/11 04:35:29;;;;;;;17.60;4.30;;;;;;;7.10;87.97;101759.59;7408109;19;20484;-70
2022/10/11 04:37:58;;;;;;;15.40;3.38;;;;;;;7.07;88.22;101756.06;7406816;19;20024;-69
2022/10/11 04:40:26;;;;;;;10.65;3.22;;;;;;;7.04;88.60;101766.47;7408077;19;20019;-69
2022/10/11 04:42:55;;;;;;;11.48;3.47;;;;;;;7.01;89.32;101768.22;7408344;19;20078;-69
2022/10/11 04:45:23;;;;;;;12.95;3.90;;;;;;;6.99;89.25;101767.31;7408639;19;20019;-68
2022/10/11 04:47:52;;;;;;;11.90;3.60;;;;;;;6.97;89.15;101773.38;7406197;19;20066;-69
2022/10/11 04:50:23;;;;;;;13.13;3.22;;;;;;;6.94;89.39;101762.91;7408323;19;20014;-69
2022/10/11 04:52:52;;;;;;;16.25;4.18;;;;;;;6.95;89.15;101772.47;7406079;19;20540;-69
2022/10/11 04:55:27;;;;;;;15.43;4.03;;;;;;;6.94;89.84;101768.13;7408312;19;20026;-69
2022/10/11 04:57:56;;;;;;;15.52;4.38;;;;;;;6.94;90.11;101774.22;7405639;19;20437;-69
2022/10/11 05:00:26;;;;;;;15.63;3.90;;;;;;;6.94;90.67;101778.56;7407438;19;20091;-70
2022/10/11 05:02:54;;;;;;;20.40;4.53;;;;;;;6.91;90.71;101775.91;7405139;19;20077;-70
2022/10/11 05:05:26;;;;;;;22.23;4.63;;;;;;;6.91;90.88;101778.53;7406270;19;20415;-70
2022/10/11 05:07:54;;;;;;;12.95;4.13;;;;;;;6.90;91.79;101784.59;7405400;19;20069;-70
2022/10/11 05:10:22;;;;;;;19.67;4.45;;;;;;;6.88;90.54;101788.94;7407423;19;20094;-69
2022/10/11 05:12:51;;;;;;;9.77;3.50;;;;;;;6.88;90.32;101799.38;7404500;19;20054;-69
2022/10/11 05:15:19;;;;;;;12.57;4.63;;;;;;;6.85;91.72;101800.22;7407334;19;20078;-69
2022/10/11 05:17:48;;;;;;;13.48;3.58;;;;;;;6.84;90.62;101803.69;7405912;19;20082;-69
2022/10/11 05:20:16;;;;;;;13.32;4.43;;;;;;;6.83;90.51;101805.41;7401812;19;20028;-70
2022/10/11 05:22:47;;;;;;;18.80;4.30;;;;;;;6.82;90.95;101808.00;7399154;19;20022;-70
2022/10/11 05:25:16;;;;;;;13.65;3.97;;;;;;;6.83;91.37;101801.94;7400648;19;20011;-69
2022/10/11 05:27:44;;;;;;;14.93;4.15;;;;;;;6.81;91.08;101804.53;7398884;19;20026;-67
2022/10/11 05:30:14;;;;;;;15.38;4.03;;;;;;;6.79;91.33;101807.97;7397855;19;20085;-69
2022/10/11 05:32:42;;;;;;;16.55;4.38;;;;;;;6.79;90.86;101821.88;7397522;19;20019;-68
2022/10/11 05:35:11;;;;;;;17.85;4.70;;;;;;;6.79;91.29;101823.63;7399205;19;20414;-69
2022/10/11 05:37:39;;;;;;;18.15;4.57;;;;;;;6.76;92.03;101826.19;7397216;19;20077;-68
2022/10/11 05:40:12;;;;;;;10.48;4.13;;;;;;;6.75;91.18;101827.03;7399677;19;20095;-69
2022/10/11 05:42:41;;;;;;;14.23;4.40;;;;;;;6.76;91.21;101832.28;7399157;19;20010;-70
2022/10/11 05:45:10;;;;;;;14.88;4.65;;;;;;;6.75;90.99;101834.84;7399804;19;20083;-68
2022/10/11 05:47:38;;;;;;;14.77;4.40;;;;;;;6.74;91.26;101834.00;7397822;19;20014;-71
2022/10/11 05:50:08;;;;;;;13.02;4.70;;;;;;;6.72;91.14;101835.69;7399804;19;20086;-69
2022/10/11 05:52:36;;;;;;;18.08;4.90;;;;;;;6.73;91.20;101847.03;7397986;19;20026;-69
2022/10/11 05:55:05;;;;;;;15.00;4.68;;;;;;;6.73;91.53;101849.63;7397188;19;20074;-69
2022/10/11 05:57:36;;;;;;;16.17;5.45;;;;;;;6.71;91.20;101847.03;7398251;19;20074;-69
2022/10/11 06:00:05;;;;;;;15.77;4.63;;;;;;;6.72;90.88;101853.09;7398999;19;20078;-70
2022/10/11 06:02:36;;;;;;;16.45;5.22;;;;;;;6.72;91.24;101858.31;7397311;19;20007;-69
2022/10/11 06:05:04;;;;;;;16.77;5.25;;;;;;;6.71;91.58;101854.84;7398803;19;20086;-69
2022/10/11 06:07:33;;;;;;;15.32;5.43;;;;;;;6.72;91.21;101866.13;7397790;19;20071;-68
2022/10/11 06:10:01;;;;;;;18.90;5.55;;;;;;;6.72;91.33;101864.38;7399557;19;20078;-69
2022/10/11 06:12:30;;;;;;;11.73;5.32;;;;;;;6.72;91.79;101871.34;7396324;19;20580;-69
2022/10/11 06:15:02;;;;;;;13.32;4.82;;;;;;;6.72;90.99;101869.59;7398447;19;20422;-69
2022/10/11 06:17:30;;;;;;;17.70;5.20;;;;;;;6.74;91.24;101878.34;7398295;19;20018;-69
2022/10/11 06:19:59;;;;;;;13.38;5.00;;;;;;;6.75;91.37;101887.91;7396192;19;20019;-69
2022/10/11 06:22:27;;;;;;;19.02;5.07;;;;;;;6.77;91.53;101883.56;7398323;19;20093;-68
2022/10/11 06:24:56;;;;;;;20.67;5.63;;;;;;;6.78;91.52;101885.34;7395979;19;20015;-69
2022/10/11 06:27:24;;;;;;;19.20;4.80;;;;;;;6.84;91.78;101892.38;7396325;19;20090;-69
2022/10/11 06:29:53;;;;;;;20.90;5.10;;;;;;;6.87;91.57;101902.84;7397888;19;20082;-70
2022/10/11 06:32:24;;;;;;;12.57;4.75;;;;;;;6.91;91.45;101899.41;7395532;19;20494;-69
2022/10/11 06:34:53;;;;;;;19.95;5.07;;;;;;;6.94;91.66;101907.28;7397842;19;20073;-69
2022/10/11 06:37:21;;;;;;;14.15;4.97;;;;;;;6.97;91.62;101907.31;7396607;19;20087;-70
2022/10/11 06:39:50;;;;;;;20.20;4.97;;;;;;;7.00;92.00;101907.34;7397375;19;20026;-69
2022/10/11 06:42:19;;;;;;;13.38;5.28;;;;;;;7.03;92.90;101909.13;7397486;19;20459;-69
2022/10/11 06:44:47;;;;;;;17.52;5.22;;;;;;;7.06;92.28;101913.50;7397765;19;20035;-70
2022/10/11 06:47:16;;;;;;;15.13;4.05;;;;;;;7.10;92.15;101916.19;7396669;19;20540;-68
2022/10/11 06:49:47;;;;;;;22.67;5.53;;;;;;;7.14;92.61;101912.72;7397303;19;20500;-68
2022/10/11 06:52:15;;;;;;;19.98;4.82;;;;;;;7.17;92.40;101915.34;7395994;19;20015;-69
2022/10/11 06:54:44;;;;;;;14.85;5.03;;;;;;;7.22;92.60;101920.63;7397434;19;20078;-69
2022/10/11 06:57:12;;;;;;;13.20;5.13;;;;;;;7.26;93.70;101927.63;7396619;19;20019;-69
2022/10/11 06:59:41;;;;;;;17.95;4.50;;;;;;;7.31;92.39;101935.53;7397275;19;20015;-69
2022/10/11 07:02:11;;;;;;;18.50;5.05;;;;;;;7.34;92.82;101940.78;7395531;19;20427;-69
2022/10/11 07:04:39;;;;;;;15.10;4.85;;;;;;;7.41;93.01;101942.59;7396554;19;20434;-69
2022/10/11 07:07:10;;;;;;;20.33;5.10;;;;;;;7.47;93.02;101942.66;7396344;19;20078;-69
2022/10/11 07:09:38;;;;;;;18.08;4.57;;;;;;;7.52;92.79;101949.66;7397471;19;20081;-68
2022/10/11 07:12:08;;;;;;;13.45;4.47;;;;;;;7.57;92.90;101945.34;7394623;19;20018;-68
2022/10/11 07:14:36;;;;;;;12.35;5.13;;;;;;;7.63;92.26;101953.25;7395824;19;20555;-68
2022/10/11 07:17:05;;;;;;;18.70;5.00;;;;;;;7.68;92.36;101948.94;7395742;19;20078;-68
2022/10/11 07:19:33;;;;;;;20.45;4.53;;;;;;;7.74;92.68;101951.63;7396962;19;20371;-68
2022/10/11 07:22:02;;;;;;;15.07;4.53;;;;;;;7.80;92.97;101959.53;7396940;19;20085;-69
2022/10/11 07:24:33;;;;;;;9.65;3.95;;;;;;;7.89;92.36;101955.25;7396803;19;20019;-69
2022/10/11 07:27:02;;;;;;;16.40;4.32;;;;;;;7.94;92.32;101953.56;7395909;19;20078;-68
2022/10/11 07:29:30;;;;;;;14.48;4.45;;;;;;;8.02;92.40;101966.69;7396468;19;20010;-69
2022/10/11 07:31:59;;;;;;;14.82;3.60;;;;;;;8.07;91.96;101970.22;7396207;19;20078;-68
2022/10/11 07:34:27;;;;;;;13.85;3.60;;;;;;;8.14;91.92;101966.78;7396238;19;20022;-69
2022/10/11 07:36:55;;;;;;;16.52;5.22;;;;;;;8.19;92.43;101967.69;7394869;19;20015;-69
2022/10/11 07:39:24;;;;;;;12.75;3.40;;;;;;;8.26;92.67;101969.47;7395715;19;20576;-69
2022/10/11 07:41:55;;;;;;;20.00;4.55;;;;;;;8.32;92.06;101968.66;7395862;19;20015;-69
2022/10/11 07:44:23;;;;;;;13.45;3.13;;;;;;;8.38;91.98;101970.44;7394095;19;20034;-69
2022/10/11 07:46:58;;;;;;;18.95;4.15;;;;;;;8.45;91.65;101974.84;7394978;19;20524;-69
2022/10/11 07:49:27;;;;;;;14.13;3.47;;;;;;;8.52;91.50;101974.06;7396452;19;20065;-68
2022/10/11 07:51:55;;;;;;;11.93;3.08;;;;;;;8.61;91.39;101978.50;7394886;19;20481;-69
2022/10/11 07:54:24;;;;;;;12.32;3.38;;;;;;;8.67;90.99;101983.75;7395842;19;20037;-69
2022/10/11 07:56:55;;;;;;;14.57;2.72;;;;;;;8.74;90.50;101995.13;7395157;19;20081;-68
2022/10/11 07:59:23;;;;;;;14.68;3.50;;;;;;;8.80;90.06;101975.09;7395895;19;20081;-70
2022/10/11 08:01:52;;;;;;;16.65;3.15;;;;;;;8.88;89.70;101972.50;7394180;19;20162;-69
2022/10/11 08:04:21;;;;;;;10.85;2.85;;;;;;;8.94;89.31;101979.53;7395404;19;20031;-69
2022/10/11 08:06:49;;;;;;;15.18;3.85;;;;;;;9.00;89.09;101987.41;7395111;19;20086;-69
2022/10/11 08:09:17;;;;;;;15.30;2.55;;;;;;;9.06;88.30;101981.31;7395524;19;20070;-69
2022/10/11 08:11:46;;;;;;;16.52;3.20;;;;;;;9.10;88.06;101997.06;7395297;19;20022;-69
2022/10/11 08:14:17;;;;;;;14.25;2.60;;;;;;;9.15;87.71;101991.84;7394958;19;20031;-68
2022/10/11 08:16:46;;;;;;;14.45;3.22;;;;;;;9.21;87.62;101991.00;7395251;19;20062;-69
2022/10/11 08:19:14;;;;;;;12.13;2.38;;;;;;;9.26;87.51;101989.25;7395155;19;20023;-69
2022/10/11 08:21:43;;;;;;;17.05;3.00;;;;;;;9.32;87.24;101997.16;7394235;19;20509;-69
2022/10/11 08:24:13;;;;;;;9.48;2.70;;;;;;;9.38;86.75;101993.69;7394469;19;20015;-68
2022/10/11 08:26:42;;;;;;;17.80;3.13;;;;;;;9.42;86.56;102003.28;7392979;19;20026;-68
2022/10/11 08:29:11;;;;;;;14.05;2.80;;;;;;;9.48;86.32;102005.03;7395464;19;20019;-68
2022/10/11 08:31:43;;;;;;;11.80;2.20;;;;;;;9.53;86.10;102012.06;7394690;19;20033;-70
2022/10/11 08:34:12;;;;;;;20.25;3.17;;;;;;;9.58;85.80;102010.31;7393369;19;20019;-69
2022/10/11 08:36:40;;;;;;;14.55;2.60;;;;;;;9.65;85.35;102015.59;7394006;19;20018;-68
2022/10/11 08:39:09;;;;;;;20.92;4.38;;;;;;;9.70;84.80;102019.09;7394974;19;20035;-68
2022/10/11 08:41:44;;;;;;;20.85;3.08;;;;;;;9.74;84.96;102012.97;7394502;19;20049;-70
2022/10/11 08:44:25;;;;;;;10.18;3.25;;;;;;;9.82;84.81;102016.50;7395234;19;20032;-70
2022/10/11 08:47:03;;;;;;;10.73;2.83;;;;;;;9.89;84.67;102023.47;7394106;19;20481;-69
2022/10/11 08:49:34;;;;;;;14.18;2.78;;;;;;;9.95;84.47;102015.63;7394252;19;20039;-68
2022/10/11 08:52:04;;;;;;;12.15;2.55;;;;;;;10.03;84.21;102015.63;7393984;19;20443;-69
2022/10/11 08:54:44;;;;;;;11.38;2.47;;;;;;;10.10;83.68;102016.53;7393162;19;20078;-69
2022/10/11 08:57:16;;;;;;;11.20;2.15;;;;;;;10.16;83.64;102020.91;7398531;19;20018;-69
2022/10/11 08:59:50;;;;;;;9.70;2.03;;;;;;;10.21;83.30;102019.16;7400634;19;20489;-68
2022/10/11 09:02:32;;;;;;;16.90;2.50;;;;;;;10.27;82.92;102030.53;7399097;19;20502;-69
2022/10/11 09:05:01;;;;;;;10.40;2.30;;;;;;;10.33;82.17;102023.53;7398577;19;20018;-69
2022/10/11 09:07:44;;;;;;;17.20;2.70;;;;;;;10.40;82.24;102025.28;7397997;19;20094;-68
2022/10/11 09:10:50;;;;;;;14.68;2.90;;;;;;;10.49;81.44;102027.03;7401349;19;20023;-68
2022/10/11 09:13:40;;;;;;;16.38;2.47;;;;;;;10.56;81.52;102031.41;7397670;19;20390;-68
2022/10/11 09:16:19;;;;;;;12.80;2.00;;;;;;;10.63;81.44;102024.41;7399675;19;20345;-69
2022/10/11 09:19:06;;;;;;;10.90;2.03;;;;;;;10.69;80.32;102027.00;7397682;19;20032;-69
2022/10/11 09:21:42;;;;;;;12.25;2.08;;;;;;;10.75;80.79;102021.75;7400864;19;20078;-67
2022/10/11 09:24:30;;;;;;;13.38;2.53;;;;;;;10.79;79.71;102023.50;7397285;19;20079;-67
2022/10/11 09:27:01;;;;;;;12.50;2.58;;;;;;;10.87;79.61;102026.13;7400025;19;20094;-67
2022/10/11 09:29:47;;;;;;;7.63;1.65;;;;;;;10.95;79.40;102018.22;7400585;19;20073;-68
2022/10/11 09:32:19;;;;;;;10.95;1.50;;;;;;;11.00;79.20;102021.72;7397750;19;20086;-66
2022/10/11 09:35:00;;;;;;;13.52;1.90;;;;;;;11.06;78.39;102016.44;7400268;19;20022;-67
2022/10/11 09:37:34;;;;;;;8.98;1.95;;;;;;;11.16;78.37;102018.16;7397498;19;20070;-66
2022/10/11 09:40:12;;;;;;;12.20;2.13;;;;;;;11.22;77.99;102023.38;7399561;19;20070;-67
2022/10/11 09:42:41;;;;;;;11.35;2.20;;;;;;;11.29;78.10;102012.84;7397615;19;20074;-67
2022/10/11 09:45:22;;;;;;;11.60;1.98;;;;;;;11.36;76.76;102011.91;7398987;19;20070;-67
2022/10/11 09:47:54;;;;;;;16.10;2.30;;;;;;;11.42;76.59;102014.53;7397010;19;20078;-68
2022/10/11 09:50:29;;;;;;;12.40;2.30;;;;;;;11.48;74.31;102018.88;7399801;19;20082;-67
2022/10/11 09:53:00;;;;;;;13.00;1.80;;;;;;;11.55;75.03;102017.97;7399021;19;20046;-67
2022/10/11 09:55:34;;;;;;;14.00;2.38;;;;;;;11.64;75.12;102017.03;7397155;19;20025;-67
2022/10/11 09:58:29;;;;;;;11.93;2.50;;;;;;;11.72;74.22;102015.25;7397130;19;20485;-69
2022/10/11 10:01:17;;;;;;;10.93;1.75;;;;;;;11.77;73.66;102025.75;7399502;19;20026;-69
2022/10/11 10:03:46;;;;;;;12.90;2.63;;;;;;;11.85;74.18;102009.03;7396671;19;20094;-68
2022/10/11 10:06:19;;;;;;;8.82;1.52;;;;;;;11.91;73.69;102010.75;7398153;19;20026;-67
2022/10/11 10:08:49;;;;;;;11.35;1.98;;;;;;;11.99;73.41;102015.97;7396688;19;20019;-67
2022/10/11 10:11:18;;;;;;;12.63;1.98;;;;;;;12.06;73.35;102012.41;7399302;19;20053;-67
2022/10/11 10:13:50;;;;;;;10.45;1.85;;;;;;;12.13;72.27;102016.75;7395971;19;20028;-67
2022/10/11 10:16:25;;;;;;;11.23;2.15;;;;;;;12.20;70.95;102020.19;7398542;19;20041;-67
2022/10/11 10:18:56;;;;;;;9.18;1.50;;;;;;;12.30;71.52;102028.91;7395674;19;20023;-67
2022/10/11 10:21:34;;;;;;;12.45;2.00;;;;;;;12.36;69.81;102026.22;7398282;19;20018;-69
2022/10/11 10:24:06;;;;;;;11.23;1.52;;;;;;;12.44;70.29;102028.78;7397992;19;20081;-68
2022/10/11 10:26:35;;;;;;;12.23;2.47;;;;;;;12.51;70.83;102028.72;7397783;19;20039;-70
2022/10/11 10:29:19;;;;;;;12.05;2.30;;;;;;;12.59;69.64;102026.00;7394866;19;20082;-69
2022/10/11 10:31:56;;;;;;;8.27;1.83;;;;;;;12.67;67.62;102034.69;7397468;19;20484;-68
2022/10/11 10:34:29;;;;;;;12.70;1.55;;;;;;;12.77;68.97;102024.94;7396944;19;20122;-67
2022/10/11 10:37:05;;;;;;;6.77;1.47;;;;;;;12.84;66.32;102029.25;7397336;19;20074;-68
2022/10/11 10:39:40;;;;;;;10.10;1.73;;;;;;;12.91;67.42;102024.78;7398109;19;20078;-67
2022/10/11 10:42:16;;;;;;;7.07;1.13;;;;;;;12.97;65.33;102030.00;7397385;19;20022;-69
2022/10/11 10:44:45;;;;;;;10.52;2.05;;;;;;;13.05;66.03;102027.25;7397616;19;20015;-68
2022/10/11 10:47:23;;;;;;;7.72;1.48;;;;;;;13.13;64.34;102022.78;7396530;19;20035;-68
2022/10/11 10:49:57;;;;;;;8.73;1.60;;;;;;;13.24;65.08;102021.78;7397363;19;20489;-69
2022/10/11 10:52:48;;;;;;;7.40;1.10;;;;;;;13.28;62.42;102018.22;7397055;19;20513;-69
2022/10/11 10:55:26;;;;;;;6.35;1.50;;;;;;;13.27;62.19;102029.63;7395467;19;20028;-69
2022/10/11 10:58:11;;;;;;;8.68;2.35;;;;;;;13.26;62.78;102012.97;7396443;19;20022;-69
2022/10/11 11:00:45;;;;;;;8.18;1.60;;;;;;;13.30;63.58;102019.06;7395786;19;20018;-70
2022/10/11 11:03:21;;;;;;;6.47;1.65;;;;;;;13.33;63.28;102021.66;7395577;19;20011;-69
2022/10/11 11:06:01;;;;;;;11.57;1.40;;;;;;;13.37;62.74;102018.13;7396422;19;20101;-70
2022/10/11 11:08:49;;;;;;;4.93;1.73;;;;;;;13.43;60.40;102022.44;7394564;19;20485;-69
2022/10/11 11:11:38;;;;;;;8.15;2.20;;;;;;;13.51;62.69;102021.44;7397148;19;20078;-70
2022/10/11 11:14:14;;;;;;;7.15;1.63;;;;;;;13.62;62.27;102013.41;7395340;19;20041;-69
2022/10/11 11:16:50;;;;;;;9.70;1.77;;;;;;;13.76;60.67;102015.84;7394596;19;20506;-67
2022/10/11 11:19:29;;;;;;;7.47;1.50;;;;;;;13.89;57.96;102011.25;7392489;19;20015;-69
2022/10/11 11:22:03;;;;;;;6.45;1.17;;;;;;;14.01;59.86;102015.44;7397056;19;20019;-69
2022/10/11 11:24:45;;;;;;;11.05;1.70;;;;;;;14.08;58.30;102003.91;7395082;19;20036;-68
2022/10/11 11:27:29;;;;;;;9.73;1.40;;;;;;;14.17;56.71;102009.03;7394379;19;20018;-69
2022/10/11 11:30:05;;;;;;;6.70;1.33;;;;;;;14.25;57.56;102013.31;7395998;19;20410;-68
2022/10/11 11:32:48;;;;;;;5.63;1.20;;;;;;;14.25;54.92;102016.81;7396789;19;20031;-69
2022/10/11 11:35:27;;;;;;;6.57;1.73;;;;;;;14.25;54.83;102018.59;7394115;19;20019;-69
2022/10/11 11:38:02;;;;;;;8.15;1.33;;;;;;;14.28;55.07;102013.25;7394589;19;20014;-69
2022/10/11 11:40:38;;;;;;;9.27;1.73;;;;;;;14.32;57.20;102017.59;7396170;19;20432;-69
2022/10/11 11:43:13;;;;;;;9.38;1.23;;;;;;;14.36;57.49;102010.50;7395886;19;20018;-70
2022/10/11 11:45:49;;;;;;;7.22;1.10;;;;;;;14.42;56.51;102010.38;7393432;19;20160;-69
2022/10/11 11:48:23;;;;;;;7.50;1.55;;;;;;;14.49;57.19;102001.44;7394579;19;20014;-69